HSZ weather

Hsinchu Air Base
Hsinchu City, Hsinchu (city), Taiwan

Public forecast

Using degrees Celsius for public forecast. Weather courtesy of forecast.io.

Closest aviation weather report (METAR) to Hsinchu Air Base

Closest report is Taiwan Taoyuan International Airport, 22.3 nm (41.4 km) NE. Retrieved 2019/10/16 05:30 UTC (10 minutes ago):

RCTP 160530Z 05016KT 9999 FEW015 SCT040 BKN060 24/20 Q1018 NOSIG RMK A3006

Aviation forecast (TAF) for Hsinchu Air Base

Forecast is more than 12 hours old.

Retrieved 2015/08/01 06:46 UTC (4 years ago):

TAF RCPO 010500Z 0106/0206 27010KT 9999 FEW020 TX33/0106Z TN27/0120Z BECMG 0111/0114 21004KT TEMPO 0118/0123 FEW020 BKN120 BECMG 0202/0205 33010KT